首页
METAR-TAF:

METAR-TAF

机场 :

兰辛首都地区国际机场

兰辛, 密歇根州, 美国

纬度: 42-46-49N, 经度: 084-34-44W, 海拔: 262米

当前天气观测

该预报发布于57分钟前的08:53 UTC
静风
温度 7°C
湿度 81%
气压 1026 hPa
能見度: 16.1公里
天空无云

METAR: KLAN 010853Z 00000KT 10SM CLR 07/04 A3029 RMK AO2 SLP258 T00720044 53003 $

时间: 05:50 (09:50 UTC)

预报

该预报发布于4小时和12分钟前的05:38 UTC
预报有效从01日的 06点(UTC)到 02日的 06点(UTC)
风速4节,风向南转西南
能見度: 10公里
散云层高于25000英尺
从 01日的 1600点(UTC)
风速9节,风向西南
能見度: 10公里
散云层高于9000英尺
从 01日的 2000点(UTC)
风速12节,风向南转西南,有时为18节阵风
能見度: 10公里
多云层高于7000英尺
从 02日的 0000点(UTC)
风速10节,风向南转西南,有时为22节阵风
能見度: 10公里
多云层高于6000英尺
阵雨

TAF: KLAN 010538Z 0106/0206 20004KT P6SM SCT250 FM011600 22009KT P6SM SCT090 FM012000 21012G18KT P6SM BKN070 FM020000 20010G22KT P6SM SHRA BKN060

超过4000个机场的气象观测和天气预报(METAR&TAF报告)。

可查询的气象台以黄色和红色小点在地图上表示。

将鼠标移到小点上方,可查看气象台名称。

然后点击查看天气观测和预报。

如需切换地图:点击带黑十字的绿色按钮放大地图;点击带横线的绿色按钮缩小地图;或者点击绿色箭头查看邻近地区的地图。


METAR-TAF: